createdAt,value
2022-10-08T00:01:32.288Z,10.30
2022-10-08T00:04:00.496Z,6.30
2022-10-08T00:06:31.153Z,8.43
2022-10-08T00:09:00.798Z,9.00
2022-10-08T00:11:31.106Z,8.50
2022-10-08T00:14:02.025Z,7.30
2022-10-08T00:16:32.215Z,9.90
2022-10-08T00:19:03.760Z,8.07
2022-10-08T00:21:33.809Z,7.97
2022-10-08T00:24:02.709Z,8.10
2022-10-08T00:26:32.559Z,7.43
2022-10-08T00:29:04.021Z,8.70
2022-10-08T00:31:35.355Z,9.70
2022-10-08T00:34:06.268Z,10.33
2022-10-08T00:36:37.235Z,9.80
2022-10-08T00:39:08.347Z,7.93
2022-10-08T00:41:38.786Z,7.77
2022-10-08T00:44:40.702Z,7.73
2022-10-08T00:47:19.363Z,8.83
2022-10-08T00:49:49.159Z,9.23
2022-10-08T00:52:18.369Z,8.27
2022-10-08T00:54:48.912Z,7.13
2022-10-08T00:57:17.329Z,8.70
2022-10-08T00:59:45.546Z,6.43
2022-10-08T01:02:15.597Z,7.97
2022-10-08T01:04:45.361Z,6.90
2022-10-08T01:07:23.673Z,7.03
2022-10-08T01:09:59.149Z,8.03
2022-10-08T01:12:38.106Z,6.67
2022-10-08T01:15:13.506Z,9.00
2022-10-08T01:17:51.155Z,7.50
2022-10-08T01:20:44.203Z,7.93
2022-10-08T01:23:43.324Z,6.80
2022-10-08T01:26:26.740Z,8.17
2022-10-08T01:29:03.255Z,6.53
2022-10-08T01:31:36.182Z,8.37
2022-10-08T01:34:09.530Z,6.57
2022-10-08T01:36:43.302Z,7.03
2022-10-08T01:39:15.202Z,7.33
2022-10-08T01:41:49.106Z,6.80
2022-10-08T01:44:23.948Z,7.83
2022-10-08T01:46:54.015Z,6.93
2022-10-08T01:49:25.127Z,8.90
2022-10-08T01:51:56.663Z,7.40
2022-10-08T01:54:27.252Z,7.53
2022-10-08T01:56:57.791Z,6.83
2022-10-08T01:59:32.566Z,7.50
2022-10-08T02:02:07.780Z,8.77
2022-10-08T02:04:35.255Z,9.83
2022-10-08T02:07:07.424Z,8.33
2022-10-08T02:09:37.959Z,7.33
2022-10-08T02:12:06.935Z,7.90
2022-10-08T02:14:38.898Z,7.13
2022-10-08T02:17:23.712Z,9.27
2022-10-08T02:19:57.962Z,7.17
2022-10-08T02:22:30.494Z,6.97
2022-10-08T02:25:02.804Z,6.13
2022-10-08T02:27:36.267Z,8.20
2022-10-08T02:30:09.313Z,10.03
2022-10-08T02:32:43.506Z,7.07
2022-10-08T02:35:17.364Z,6.07
2022-10-08T02:37:48.556Z,7.13
2022-10-08T02:40:18.795Z,5.70
2022-10-08T02:42:54.151Z,8.67
2022-10-08T02:45:28.889Z,6.10
2022-10-08T02:48:05.243Z,7.17
2022-10-08T02:50:36.361Z,6.17
2022-10-08T02:53:04.886Z,8.73
2022-10-08T02:55:42.591Z,6.43
2022-10-08T02:58:12.319Z,5.87
2022-10-08T03:00:49.027Z,7.87
2022-10-08T03:03:22.235Z,5.53
2022-10-08T03:05:52.751Z,8.63
2022-10-08T03:08:22.711Z,7.07
2022-10-08T03:10:51.864Z,6.03
2022-10-08T03:13:21.119Z,5.97
2022-10-08T03:15:53.734Z,8.10
2022-10-08T03:18:24.284Z,5.77
2022-10-08T03:20:54.313Z,8.00
2022-10-08T03:23:22.499Z,7.53
2022-10-08T03:25:50.681Z,5.90
2022-10-08T03:28:18.905Z,5.23
2022-10-08T03:30:47.633Z,7.50
2022-10-08T03:33:17.230Z,6.93
2022-10-08T03:35:46.661Z,6.23
2022-10-08T03:38:16.590Z,5.37
2022-10-08T03:40:44.925Z,5.33
2022-10-08T03:43:13.160Z,3.93
2022-10-08T03:45:49.576Z,5.63
2022-10-08T03:48:19.488Z,5.57
2022-10-08T03:50:58.899Z,5.83
2022-10-08T03:53:27.809Z,6.63
2022-10-08T03:55:56.241Z,10.13
2022-10-08T03:58:24.685Z,5.93
2022-10-08T04:00:59.073Z,4.73
2022-10-08T04:03:29.518Z,5.00
2022-10-08T04:05:57.763Z,6.20
2022-10-08T04:08:26.762Z,6.00
2022-10-08T04:10:55.021Z,7.20
2022-10-08T04:13:23.686Z,4.93
2022-10-08T04:15:52.083Z,7.40
2022-10-08T04:18:20.471Z,4.57
2022-10-08T04:20:49.912Z,6.37
2022-10-08T04:23:18.030Z,4.77
2022-10-08T04:25:51.866Z,6.13
2022-10-08T04:28:20.394Z,4.70
2022-10-08T04:30:56.798Z,5.67
2022-10-08T04:33:25.361Z,6.47
2022-10-08T04:35:59.907Z,5.57
2022-10-08T04:38:28.843Z,4.60
2022-10-08T04:41:04.189Z,5.87
2022-10-08T04:43:32.308Z,5.07
2022-10-08T04:46:00.508Z,4.97
2022-10-08T04:48:28.691Z,6.53
2022-10-08T04:50:59.334Z,5.17
2022-10-08T04:53:27.983Z,5.17
2022-10-08T04:55:57.271Z,5.47
2022-10-08T04:58:26.774Z,7.23
2022-10-08T05:00:54.975Z,4.67
2022-10-08T05:03:23.248Z,4.53
2022-10-08T05:05:51.375Z,6.23
2022-10-08T05:08:20.979Z,4.83
2022-10-08T05:10:49.952Z,5.63
2022-10-08T05:13:18.050Z,6.03
2022-10-08T05:15:46.268Z,4.93
2022-10-08T05:18:14.379Z,4.57
2022-10-08T05:20:42.583Z,6.17
2022-10-08T05:23:10.750Z,5.10
2022-10-08T05:25:40.325Z,5.67
2022-10-08T05:28:09.079Z,6.47
2022-10-08T05:30:37.257Z,5.20
2022-10-08T05:33:05.504Z,5.23
2022-10-08T05:35:33.669Z,6.43
2022-10-08T05:38:01.781Z,5.63
2022-10-08T05:40:31.573Z,4.33
2022-10-08T05:43:01.147Z,4.50
2022-10-08T05:45:29.428Z,4.70
2022-10-08T05:47:57.579Z,25.43
2022-10-08T05:50:25.715Z,6.70
2022-10-08T05:52:53.961Z,5.30
2022-10-08T05:55:22.094Z,6.37
2022-10-08T05:57:50.231Z,5.23
2022-10-08T06:00:19.938Z,6.63
2022-10-08T06:02:51.013Z,4.40
2022-10-08T06:05:19.320Z,6.47
2022-10-08T06:07:47.447Z,5.17
2022-10-08T06:10:15.780Z,7.53
2022-10-08T06:12:44.163Z,6.47
2022-10-08T06:15:12.556Z,6.70
2022-10-08T06:17:42.127Z,8.27
2022-10-08T06:20:10.911Z,6.10
2022-10-08T06:22:39.076Z,5.10
2022-10-08T06:25:08.492Z,5.73
2022-10-08T06:27:36.722Z,4.57
2022-10-08T06:30:05.377Z,4.27
2022-10-08T06:32:33.467Z,6.30
2022-10-08T06:35:03.018Z,7.37
2022-10-08T06:37:31.410Z,5.00
2022-10-08T06:39:59.515Z,5.53
2022-10-08T06:42:27.692Z,5.03
2022-10-08T06:44:58.758Z,7.30
2022-10-08T06:47:30.133Z,8.40
2022-10-08T06:49:58.287Z,4.67
2022-10-08T06:52:27.896Z,8.10
2022-10-08T06:54:56.000Z,4.83
2022-10-08T06:57:24.263Z,6.70
2022-10-08T06:59:54.459Z,6.27
2022-10-08T07:02:23.062Z,6.07
2022-10-08T07:04:51.205Z,6.60
2022-10-08T07:07:19.811Z,6.53
2022-10-08T07:09:49.329Z,6.30
2022-10-08T07:12:17.543Z,6.83
2022-10-08T07:14:46.013Z,5.33
2022-10-08T07:17:14.096Z,8.17
2022-10-08T07:19:42.284Z,7.83
2022-10-08T07:22:10.465Z,7.03
2022-10-08T07:24:38.611Z,5.20
2022-10-08T07:27:08.263Z,5.67
2022-10-08T07:29:36.617Z,6.23
2022-10-08T07:32:04.958Z,4.60
2022-10-08T07:34:33.203Z,4.73
2022-10-08T07:37:01.401Z,6.03
2022-10-08T07:39:29.644Z,5.83
2022-10-08T07:41:58.009Z,6.23
2022-10-08T07:44:27.587Z,5.37
2022-10-08T07:46:55.719Z,4.20
2022-10-08T07:49:23.873Z,5.77
2022-10-08T07:51:52.153Z,6.30
2022-10-08T07:54:21.371Z,4.03
2022-10-08T07:56:49.523Z,4.50
2022-10-08T07:59:17.691Z,4.17
2022-10-08T08:01:47.342Z,5.53
2022-10-08T08:04:15.758Z,4.20
2022-10-08T08:06:45.724Z,4.23
2022-10-08T08:09:14.945Z,4.10
2022-10-08T08:11:43.335Z,3.70
2022-10-08T08:14:11.416Z,5.43
2022-10-08T08:16:40.522Z,3.67
2022-10-08T08:19:10.164Z,3.67
2022-10-08T08:21:39.572Z,5.17
2022-10-08T08:24:11.601Z,4.83
2022-10-08T08:26:42.314Z,8.53
2022-10-08T08:29:12.771Z,5.30
2022-10-08T08:31:43.419Z,5.30
2022-10-08T08:34:15.477Z,11.70
2022-10-08T08:36:46.104Z,8.03
2022-10-08T08:39:17.363Z,8.13
2022-10-08T08:42:15.000Z,6.50
2022-10-08T08:44:44.480Z,8.63
2022-10-08T08:47:19.069Z,7.67
2022-10-08T08:49:51.999Z,7.90
2022-10-08T08:52:22.891Z,7.63
2022-10-08T08:54:53.376Z,8.37
2022-10-08T08:57:37.441Z,7.03
2022-10-08T09:00:11.583Z,10.43
2022-10-08T09:02:45.978Z,7.97
2022-10-08T09:05:18.243Z,6.80
2022-10-08T09:07:50.670Z,7.67
2022-10-08T09:10:22.543Z,7.37
2022-10-08T09:12:53.741Z,8.73
2022-10-08T09:15:26.956Z,7.37
2022-10-08T09:17:55.099Z,9.50
2022-10-08T09:20:26.417Z,8.60
2022-10-08T09:22:57.602Z,8.73
2022-10-08T09:25:28.284Z,6.87
2022-10-08T09:27:58.070Z,8.83
2022-10-08T09:30:38.009Z,6.63
2022-10-08T09:33:29.537Z,6.37
2022-10-08T09:35:59.532Z,7.13
2022-10-08T09:38:31.300Z,6.43
2022-10-08T09:41:04.568Z,6.67
2022-10-08T09:43:33.882Z,10.80
2022-10-08T09:46:05.696Z,8.80
2022-10-08T09:48:33.963Z,10.37
2022-10-08T09:51:06.846Z,11.20
2022-10-08T09:53:42.641Z,11.30
2022-10-08T09:56:13.294Z,12.97
2022-10-08T09:58:52.237Z,14.70
2022-10-08T10:01:21.345Z,13.60
2022-10-08T10:03:52.231Z,16.77
2022-10-08T10:06:29.425Z,18.90
2022-10-08T10:09:07.911Z,14.53
2022-10-08T10:11:41.815Z,13.27
2022-10-08T10:14:21.457Z,18.30
2022-10-08T10:16:55.966Z,14.33
2022-10-08T10:19:29.537Z,18.50
2022-10-08T10:22:04.516Z,19.10
2022-10-08T10:24:55.317Z,23.10
2022-10-08T10:27:29.980Z,20.63
2022-10-08T10:30:07.591Z,22.53
2022-10-08T10:32:41.024Z,20.13
2022-10-08T10:35:16.112Z,22.37
2022-10-08T10:37:52.227Z,23.70
2022-10-08T10:40:33.026Z,21.37
2022-10-08T10:43:29.639Z,28.23
2022-10-08T10:46:03.082Z,27.60
2022-10-08T10:48:31.446Z,28.10
2022-10-08T10:51:16.530Z,25.23
2022-10-08T10:53:56.627Z,25.33
2022-10-08T10:56:32.192Z,24.50
2022-10-08T10:59:21.340Z,24.30
2022-10-08T11:01:55.157Z,25.13
2022-10-08T11:04:38.391Z,22.77
2022-10-08T11:07:33.492Z,24.53
2022-10-08T11:10:10.413Z,26.43
2022-10-08T11:12:47.096Z,21.17
2022-10-08T11:15:27.750Z,24.23
2022-10-08T11:18:13.130Z,21.17
2022-10-08T11:20:51.036Z,23.30
2022-10-08T11:23:36.263Z,22.80
2022-10-08T11:26:22.295Z,26.07
2022-10-08T11:29:01.123Z,25.17
2022-10-08T11:31:37.700Z,23.20
2022-10-08T11:34:06.834Z,29.20
2022-10-08T11:36:41.645Z,26.03
2022-10-08T11:39:18.488Z,22.73
2022-10-08T11:41:55.179Z,25.90
2022-10-08T11:44:23.597Z,22.00
2022-10-08T11:46:51.724Z,25.30
2022-10-08T11:49:48.236Z,21.33
2022-10-08T11:52:17.128Z,26.63
2022-10-08T11:54:55.390Z,22.57
2022-10-08T12:00:37.488Z,20.27
2022-10-08T12:03:18.687Z,19.83
2022-10-08T12:05:50.862Z,27.77
2022-10-08T12:08:53.891Z,23.33
2022-10-08T12:11:48.648Z,23.17
2022-10-08T12:14:49.592Z,25.47
2022-10-08T12:17:18.022Z,25.00
2022-10-08T12:20:07.651Z,22.67
2022-10-08T12:23:05.303Z,21.50
2022-10-08T12:25:44.148Z,24.17
2022-10-08T12:28:54.184Z,19.80
2022-10-08T12:31:32.705Z,19.93
2022-10-08T12:34:04.201Z,20.13
2022-10-08T12:36:46.913Z,19.70
2022-10-08T12:39:23.788Z,21.67
2022-10-08T12:42:00.433Z,22.57
2022-10-08T12:44:45.220Z,19.50
2022-10-08T12:47:25.936Z,18.27
2022-10-08T12:50:00.790Z,17.37
2022-10-08T12:52:35.348Z,22.87
2022-10-08T12:55:06.222Z,17.50
2022-10-08T12:57:37.018Z,18.97
2022-10-08T13:00:09.307Z,21.70
2022-10-08T13:02:41.166Z,18.67
2022-10-08T13:05:27.417Z,21.57
2022-10-08T13:07:55.957Z,15.80
2022-10-08T13:10:26.412Z,14.90
2022-10-08T13:13:02.247Z,16.43
2022-10-08T13:15:33.392Z,19.20
2022-10-08T13:18:14.565Z,15.43
2022-10-08T13:20:57.302Z,14.20
2022-10-08T13:23:26.060Z,14.90
2022-10-08T13:25:54.175Z,21.40
2022-10-08T13:28:42.162Z,14.40
2022-10-08T13:31:24.064Z,20.83
2022-10-08T13:33:53.765Z,15.20
2022-10-08T13:36:24.273Z,18.30
2022-10-08T13:38:52.526Z,19.70
2022-10-08T13:41:25.184Z,16.37
2022-10-08T13:43:53.458Z,15.43
2022-10-08T13:46:21.695Z,17.40
2022-10-08T13:48:49.956Z,14.80
2022-10-08T13:51:19.616Z,18.10
2022-10-08T13:53:47.853Z,15.00
2022-10-08T13:56:18.174Z,12.87
2022-10-08T13:58:46.247Z,16.40
2022-10-08T14:01:14.374Z,15.80
2022-10-08T14:03:42.568Z,12.00
2022-10-08T14:06:10.774Z,12.57
2022-10-08T14:08:40.396Z,15.80
2022-10-08T14:11:08.737Z,14.63
2022-10-08T14:13:36.944Z,13.83
2022-10-08T14:16:05.107Z,17.80
2022-10-08T14:18:33.526Z,13.07
2022-10-08T14:21:01.762Z,12.03
2022-10-08T14:23:29.920Z,14.03
2022-10-08T14:25:59.656Z,14.87
2022-10-08T14:28:27.885Z,14.83
2022-10-08T14:30:56.158Z,16.03
2022-10-08T14:33:24.321Z,17.30
2022-10-08T14:35:54.452Z,13.27
2022-10-08T14:38:22.608Z,13.50
2022-10-08T14:40:50.797Z,13.97
2022-10-08T14:43:21.994Z,14.10
2022-10-08T14:45:50.275Z,13.13
2022-10-08T14:48:18.577Z,12.37
2022-10-08T14:50:46.778Z,14.77
2022-10-08T14:53:15.083Z,19.63
2022-10-08T14:56:07.450Z,16.53
2022-10-08T14:58:32.966Z,13.80
2022-10-08T15:01:01.380Z,15.97
2022-10-08T15:03:29.605Z,13.83
2022-10-08T15:06:00.448Z,14.37
2022-10-08T15:08:28.887Z,11.73
2022-10-08T15:10:57.161Z,14.27
2022-10-08T15:13:25.348Z,20.73
2022-10-08T15:15:54.997Z,14.60
2022-10-08T15:18:23.166Z,15.47
2022-10-08T15:20:56.652Z,12.20
2022-10-08T15:23:25.145Z,13.67
2022-10-08T15:25:57.630Z,15.13
2022-10-08T15:28:27.916Z,15.10
2022-10-08T15:31:05.622Z,13.67
2022-10-08T15:33:38.696Z,14.40
2022-10-08T15:36:17.098Z,13.80
2022-10-08T15:38:45.360Z,11.27
2022-10-08T15:41:15.015Z,13.00
2022-10-08T15:43:43.189Z,17.23
2022-10-08T15:46:15.548Z,13.23
2022-10-08T15:48:51.014Z,18.97
2022-10-08T15:51:19.270Z,13.03
2022-10-08T15:53:47.565Z,13.87
2022-10-08T15:56:15.795Z,15.30
2022-10-08T15:58:51.972Z,11.40
2022-10-08T16:01:23.734Z,16.00
2022-10-08T16:03:53.618Z,11.63
2022-10-08T16:06:23.705Z,14.63
2022-10-08T16:08:52.033Z,11.77
2022-10-08T16:11:22.195Z,15.00
2022-10-08T16:13:51.920Z,10.20
2022-10-08T16:16:21.895Z,12.10
2022-10-08T16:18:56.040Z,16.77
2022-10-08T16:21:24.339Z,10.63
2022-10-08T16:23:52.599Z,16.00
2022-10-08T16:26:21.640Z,20.17
2022-10-08T16:28:52.123Z,16.33
2022-10-08T16:31:22.209Z,15.03
2022-10-08T16:33:55.667Z,18.63
2022-10-08T16:36:24.519Z,15.43
2022-10-08T16:38:53.913Z,16.70
2022-10-08T16:41:23.870Z,16.83
2022-10-08T16:43:53.877Z,19.77
2022-10-08T16:46:25.635Z,15.87
2022-10-08T16:48:54.624Z,18.27
2022-10-08T16:51:24.064Z,16.87
2022-10-08T16:53:53.437Z,18.57
2022-10-08T16:56:21.877Z,16.10
2022-10-08T16:58:53.194Z,13.37
2022-10-08T17:01:23.228Z,15.47
2022-10-08T17:03:51.763Z,15.57
2022-10-08T17:06:21.162Z,14.50
2022-10-08T17:08:49.708Z,12.67
2022-10-08T17:11:18.663Z,12.80
2022-10-08T17:13:48.796Z,13.80
2022-10-08T17:16:18.208Z,13.10
2022-10-08T17:18:50.843Z,16.47
2022-10-08T17:21:19.111Z,12.50
2022-10-08T17:23:47.418Z,14.63
2022-10-08T17:26:17.603Z,16.33
2022-10-08T17:28:47.646Z,14.60
2022-10-08T17:31:17.803Z,12.77
2022-10-08T17:33:47.551Z,17.03
2022-10-08T17:36:18.148Z,14.43
2022-10-08T17:38:48.354Z,15.17
2022-10-08T17:41:18.916Z,14.87
2022-10-08T17:43:48.220Z,16.00
2022-10-08T17:46:18.283Z,12.27
2022-10-08T17:48:48.031Z,13.90
2022-10-08T17:51:17.951Z,12.87
2022-10-08T17:53:46.853Z,12.40
2022-10-08T17:56:15.384Z,15.20
2022-10-08T17:58:43.540Z,13.07
2022-10-08T18:01:13.557Z,10.40
2022-10-08T18:03:43.393Z,12.67
2022-10-08T18:06:14.472Z,15.33
2022-10-08T18:08:42.697Z,13.47
2022-10-08T18:11:12.836Z,14.07
2022-10-08T18:13:41.421Z,15.20
2022-10-08T18:16:12.339Z,12.67
2022-10-08T18:18:40.760Z,11.90
2022-10-08T18:21:09.255Z,18.17
2022-10-08T18:23:39.107Z,16.63
2022-10-08T18:26:12.372Z,17.87
2022-10-08T18:28:40.534Z,17.97
2022-10-08T18:31:10.354Z,19.13
2022-10-08T18:33:40.496Z,18.67
2022-10-08T18:36:11.298Z,16.43
2022-10-08T18:38:42.539Z,15.87
2022-10-08T18:41:14.823Z,16.60
2022-10-08T18:43:43.132Z,14.97
2022-10-08T18:46:11.368Z,14.57
2022-10-08T18:48:39.929Z,22.00
2022-10-08T18:51:09.547Z,12.43
2022-10-08T18:53:40.788Z,12.37
2022-10-08T18:56:11.759Z,12.63
2022-10-08T18:58:39.888Z,17.70
2022-10-08T19:01:16.165Z,11.13
2022-10-08T19:03:46.805Z,13.43
2022-10-08T19:06:15.027Z,17.47
2022-10-08T19:08:44.694Z,16.80
2022-10-08T19:11:15.517Z,20.37
2022-10-08T19:13:44.355Z,15.50
2022-10-08T19:16:15.209Z,12.23
2022-10-08T19:18:44.354Z,14.13
2022-10-08T19:21:14.399Z,12.67
2022-10-08T19:23:44.112Z,12.07
2022-10-08T19:26:12.671Z,13.50
2022-10-08T19:28:41.754Z,12.07
2022-10-08T19:31:14.324Z,13.70
2022-10-08T19:33:42.707Z,13.87
2022-10-08T19:36:11.344Z,11.20
2022-10-08T19:38:39.457Z,10.47
2022-10-08T19:41:13.088Z,11.17
2022-10-08T19:43:43.386Z,11.33
2022-10-08T19:46:11.944Z,12.27
2022-10-08T19:48:40.218Z,11.43
2022-10-08T19:51:10.452Z,11.43
2022-10-08T19:53:39.712Z,16.13
2022-10-08T19:56:10.126Z,10.97
2022-10-08T19:58:44.988Z,13.27
2022-10-08T20:01:18.674Z,14.27
2022-10-08T20:03:46.936Z,11.20
2022-10-08T20:06:21.723Z,14.80
2022-10-08T20:08:53.987Z,13.40
2022-10-08T20:11:22.551Z,11.17
2022-10-08T20:13:54.393Z,14.10
2022-10-08T20:16:24.289Z,13.30
2022-10-08T20:18:54.471Z,15.13
2022-10-08T20:21:24.085Z,13.30
2022-10-08T20:23:52.285Z,12.93
2022-10-08T20:26:21.984Z,15.50
2022-10-08T20:28:53.415Z,11.87
2022-10-08T20:31:23.629Z,13.10
2022-10-08T20:33:57.564Z,12.43
2022-10-08T20:36:26.026Z,10.20
2022-10-08T20:38:54.879Z,12.27
2022-10-08T20:41:29.584Z,10.80
2022-10-08T20:44:03.163Z,10.87
2022-10-08T20:46:32.564Z,11.23
2022-10-08T20:49:01.131Z,12.87
2022-10-08T20:51:30.107Z,12.63
2022-10-08T20:54:00.126Z,13.07
2022-10-08T20:56:29.325Z,12.73
2022-10-08T20:58:58.328Z,18.00
2022-10-08T21:01:32.086Z,12.60
2022-10-08T21:04:00.821Z,12.70
2022-10-08T21:06:31.391Z,10.60
2022-10-08T21:09:00.598Z,13.73
2022-10-08T21:11:30.705Z,13.57
2022-10-08T21:13:59.523Z,14.70
2022-10-08T21:16:31.672Z,19.70
2022-10-08T21:19:02.284Z,17.23
2022-10-08T21:21:32.063Z,16.57
2022-10-08T21:24:00.633Z,19.30
2022-10-08T21:26:30.516Z,14.53
2022-10-08T21:29:00.109Z,16.73
2022-10-08T21:31:31.680Z,15.90
2022-10-08T21:34:00.419Z,17.33
2022-10-08T21:36:30.666Z,14.20
2022-10-08T21:39:00.408Z,13.70
2022-10-08T21:41:31.017Z,17.50
2022-10-08T21:44:01.715Z,15.70
2022-10-08T21:46:33.965Z,19.17
2022-10-08T21:49:04.251Z,15.67
2022-10-08T21:51:33.344Z,20.37
2022-10-08T21:54:03.421Z,23.13
2022-10-08T21:56:34.236Z,21.40
2022-10-08T21:59:03.812Z,18.17
2022-10-08T22:01:35.940Z,16.73
2022-10-08T22:04:06.259Z,16.80
2022-10-08T22:06:37.495Z,16.23
2022-10-08T22:09:06.923Z,15.20
2022-10-08T22:11:35.363Z,16.47
2022-10-08T22:14:03.681Z,13.07
2022-10-08T22:16:33.449Z,12.27
2022-10-08T22:19:01.913Z,11.83
2022-10-08T22:21:30.105Z,12.57
2022-10-08T22:23:58.332Z,15.67
2022-10-08T22:26:29.818Z,13.60
2022-10-08T22:28:58.727Z,17.67
2022-10-08T22:31:27.854Z,18.63
2022-10-08T22:33:57.494Z,16.00
2022-10-08T22:36:28.251Z,17.20
2022-10-08T22:38:57.380Z,12.47
2022-10-08T22:41:26.900Z,12.70
2022-10-08T22:43:55.555Z,15.37
2022-10-08T22:46:26.221Z,13.27
2022-10-08T22:49:00.014Z,12.57
2022-10-08T22:51:29.062Z,13.30
2022-10-08T22:53:57.793Z,8.57
2022-10-08T22:56:27.891Z,11.53
2022-10-08T22:58:56.128Z,8.83
2022-10-08T23:01:25.778Z,8.80
2022-10-08T23:03:54.483Z,7.43
2022-10-08T23:06:25.117Z,6.90
2022-10-08T23:08:55.527Z,10.60
2022-10-08T23:11:24.146Z,8.63
2022-10-08T23:13:52.764Z,10.60
2022-10-08T23:16:21.129Z,7.97
2022-10-08T23:18:55.451Z,7.50
2022-10-08T23:21:25.594Z,7.90
2022-10-08T23:23:54.823Z,10.03
2022-10-08T23:26:23.986Z,8.27
2022-10-08T23:28:53.387Z,10.30
2022-10-08T23:31:23.879Z,6.37
2022-10-08T23:33:53.877Z,7.43
2022-10-08T23:36:26.529Z,8.40
2022-10-08T23:38:56.502Z,7.97
2022-10-08T23:41:25.550Z,7.83
2022-10-08T23:43:54.645Z,7.87
2022-10-08T23:46:24.360Z,6.93
2022-10-08T23:48:53.420Z,10.73
2022-10-08T23:51:23.390Z,8.03
2022-10-08T23:53:53.633Z,6.63
2022-10-08T23:56:22.681Z,7.57
2022-10-08T23:58:51.046Z,7.03
